Aviation Digital Data Service (ADDS)

Output produced by METARs form (0530 UTC 24 January 2019)
found at http://www.aviationweather.gov/metar/data/
 
METAR text: ESOW 240520Z AUTO VRB01KT 9000 BR OVC004/// M12/M14 Q1015
Conditions at: ESOW (VASTERAS/HASSLO , SE) observed 0520 UTC 24 January 2019
Temperature: -12.0°C (10°F)
Dewpoint: -14.0°C ( 7°F) [RH = 85%]
Pressure (altimeter): 29.97 inches Hg (1015.0 mb)
Winds: variable direction winds at 1 MPH (1 knots; 0.5 m/s)
Visibility: 6 miles ( 9 km)
Ceiling: 400 feet AGL
Clouds: overcast cloud deck at 400 feet AGL
Weather: BR  (mist)

METAR text: ESOW 240450Z AUTO 00000KT 9000 BR OVC005/// M12/M14 Q1015
Conditions at: ESOW (VASTERAS/HASSLO , SE) observed 0450 UTC 24 January 2019
Temperature: -12.0°C (10°F)
Dewpoint: -14.0°C ( 7°F) [RH = 85%]
Pressure (altimeter): 29.97 inches Hg (1015.0 mb)
Winds: calm
Visibility: 6 miles ( 9 km)
Ceiling: 500 feet AGL
Clouds: overcast cloud deck at 500 feet AGL
Weather: BR  (mist)

METAR text: ESOW 240420Z AUTO 36001KT 7000 SCT004/// OVC006/// M11/M13 Q1015
Conditions at: ESOW (VASTERAS/HASSLO , SE) observed 0420 UTC 24 January 2019
Temperature: -11.0°C (12°F)
Dewpoint: -13.0°C ( 9°F) [RH = 85%]
Pressure (altimeter): 29.97 inches Hg (1015.0 mb)
Winds: from the N (360 degrees) at 1 MPH (1 knots; 0.5 m/s)
Visibility: 4 miles ( 7 km)
Ceiling: 600 feet AGL
Clouds: scattered clouds at 400 feet AGL
overcast cloud deck at 600 feet AGL
Weather: no significant weather observed at this time

METAR text: ESOW 240350Z AUTO VRB01KT 8000 BR SCT004/// M12/M14 Q1015
Conditions at: ESOW (VASTERAS/HASSLO , SE) observed 0350 UTC 24 January 2019
Temperature: -12.0°C (10°F)
Dewpoint: -14.0°C ( 7°F) [RH = 85%]
Pressure (altimeter): 29.97 inches Hg (1015.0 mb)
Winds: variable direction winds at 1 MPH (1 knots; 0.5 m/s)
Visibility: 5 miles ( 8 km)
Ceiling: at least 12,000 feet AGL
Clouds: scattered clouds at 400 feet AGL
Weather: BR  (mist)

METAR text: ESOW 240320Z AUTO 00000KT 9000 BR BKN017/// M11/M13 Q1014
Conditions at: ESOW (VASTERAS/HASSLO , SE) observed 0320 UTC 24 January 2019
Temperature: -11.0°C (12°F)
Dewpoint: -13.0°C ( 9°F) [RH = 85%]
Pressure (altimeter): 29.94 inches Hg (1014.0 mb)
Winds: calm
Visibility: 6 miles ( 9 km)
Ceiling: 1700 feet AGL
Clouds: broken clouds at 1700 feet AGL
Weather: BR  (mist)

METAR text: ESOW 240250Z AUTO 00000KT 9000 BR BKN020/// M11/M13 Q1014
Conditions at: ESOW (VASTERAS/HASSLO , SE) observed 0250 UTC 24 January 2019
Temperature: -11.0°C (12°F)
Dewpoint: -13.0°C ( 9°F) [RH = 85%]
Pressure (altimeter): 29.94 inches Hg (1014.0 mb)
Winds: calm
Visibility: 6 miles ( 9 km)
Ceiling: 2000 feet AGL
Clouds: broken clouds at 2000 feet AGL
Weather: BR  (mist)

METAR text: ESOW 240220Z AUTO 01002KT 8000 BR OVC021/// M11/M13 Q1014
Conditions at: ESOW (VASTERAS/HASSLO , SE) observed 0220 UTC 24 January 2019
Temperature: -11.0°C (12°F)
Dewpoint: -13.0°C ( 9°F) [RH = 85%]
Pressure (altimeter): 29.94 inches Hg (1014.0 mb)
Winds: from the N (10 degrees) at 2 MPH (2 knots; 1.0 m/s)
Visibility: 5 miles ( 8 km)
Ceiling: 2100 feet AGL
Clouds: overcast cloud deck at 2100 feet AGL
Weather: BR  (mist)

METAR text: ESOW 240150Z AUTO 01002KT 9000 BR BKN024/// M10/M12 Q1014
Conditions at: ESOW (VASTERAS/HASSLO , SE) observed 0150 UTC 24 January 2019
Temperature: -10.0°C (14°F)
Dewpoint: -12.0°C (10°F) [RH = 85%]
Pressure (altimeter): 29.94 inches Hg (1014.0 mb)
Winds: from the N (10 degrees) at 2 MPH (2 knots; 1.0 m/s)
Visibility: 6 miles ( 9 km)
Ceiling: 2400 feet AGL
Clouds: broken clouds at 2400 feet AGL
Weather: BR  (mist)

METAR text: ESOW 240120Z AUTO 03001KT 9000 BR OVC024/// M10/M12 Q1014
Conditions at: ESOW (VASTERAS/HASSLO , SE) observed 0120 UTC 24 January 2019
Temperature: -10.0°C (14°F)
Dewpoint: -12.0°C (10°F) [RH = 85%]
Pressure (altimeter): 29.94 inches Hg (1014.0 mb)
Winds: from the NNE (30 degrees) at 1 MPH (1 knots; 0.5 m/s)
Visibility: 6 miles ( 9 km)
Ceiling: 2400 feet AGL
Clouds: overcast cloud deck at 2400 feet AGL
Weather: BR  (mist)

METAR text: ESOW 240050Z AUTO VRB01KT 7000 BR OVC023/// M10/M12 Q1014
Conditions at: ESOW (VASTERAS/HASSLO , SE) observed 0050 UTC 24 January 2019
Temperature: -10.0°C (14°F)
Dewpoint: -12.0°C (10°F) [RH = 85%]
Pressure (altimeter): 29.94 inches Hg (1014.0 mb)
Winds: variable direction winds at 1 MPH (1 knots; 0.5 m/s)
Visibility: 4 miles ( 7 km)
Ceiling: 2300 feet AGL
Clouds: overcast cloud deck at 2300 feet AGL
Weather: BR  (mist)

METAR text: ESOW 240020Z AUTO 03002KT 8000 BR OVC022/// M10/M12 Q1013
Conditions at: ESOW (VASTERAS/HASSLO , SE) observed 0020 UTC 24 January 2019
Temperature: -10.0°C (14°F)
Dewpoint: -12.0°C (10°F) [RH = 85%]
Pressure (altimeter): 29.91 inches Hg (1013.0 mb)
Winds: from the NNE (30 degrees) at 2 MPH (2 knots; 1.0 m/s)
Visibility: 5 miles ( 8 km)
Ceiling: 2200 feet AGL
Clouds: overcast cloud deck at 2200 feet AGL
Weather: BR  (mist)

METAR text: ESOW 232350Z AUTO 02002KT 7000 BR BKN024/// M12/M14 Q1013
Conditions at: ESOW (VASTERAS/HASSLO , SE) observed 2350 UTC 23 January 2019
Temperature: -12.0°C (10°F)
Dewpoint: -14.0°C ( 7°F) [RH = 85%]
Pressure (altimeter): 29.91 inches Hg (1013.0 mb)
Winds: from the NNE (20 degrees) at 2 MPH (2 knots; 1.0 m/s)
Visibility: 4 miles ( 7 km)
Ceiling: 2400 feet AGL
Clouds: broken clouds at 2400 feet AGL
Weather: BR  (mist)

METAR text: ESOW 232320Z AUTO 01002KT 7000 BR BKN026/// M11/M13 Q1013
Conditions at: ESOW (VASTERAS/HASSLO , SE) observed 2320 UTC 23 January 2019
Temperature: -11.0°C (12°F)
Dewpoint: -13.0°C ( 9°F) [RH = 85%]
Pressure (altimeter): 29.91 inches Hg (1013.0 mb)
Winds: from the N (10 degrees) at 2 MPH (2 knots; 1.0 m/s)
Visibility: 4 miles ( 7 km)
Ceiling: 2600 feet AGL
Clouds: broken clouds at 2600 feet AGL
Weather: BR  (mist)

METAR text: ESOW 232250Z AUTO 02003KT 6000 BR BKN026/// M10/M12 Q1013
Conditions at: ESOW (VASTERAS/HASSLO , SE) observed 2250 UTC 23 January 2019
Temperature: -10.0°C (14°F)
Dewpoint: -12.0°C (10°F) [RH = 85%]
Pressure (altimeter): 29.91 inches Hg (1013.0 mb)
Winds: from the NNE (20 degrees) at 3 MPH (3 knots; 1.5 m/s)
Visibility: 4 miles ( 6 km)
Ceiling: 2600 feet AGL
Clouds: broken clouds at 2600 feet AGL
Weather: BR  (mist)

METAR text: ESOW 232220Z AUTO 01004KT 3800 NCD M11/M13 Q1013
Conditions at: ESOW (VASTERAS/HASSLO , SE) observed 2220 UTC 23 January 2019
Temperature: -11.0°C (12°F)
Dewpoint: -13.0°C ( 9°F) [RH = 85%]
Pressure (altimeter): 29.91 inches Hg (1013.0 mb)
Winds: from the N (10 degrees) at 5 MPH (4 knots; 2.1 m/s)
Visibility: 2.36 miles (3.80 km)
Ceiling: at least 12,000 feet AGL
Clouds: sky clear below 12,000 feet AGL
Weather: no significant weather observed at this time

METAR text: ESOW 232150Z AUTO 02003KT 0250 R01/0900N R19/P2000N NCD M12/M14 Q1013
Conditions at: ESOW (VASTERAS/HASSLO , SE) observed 2150 UTC 23 January 2019
Temperature: -12.0°C (10°F)
Dewpoint: -14.0°C ( 7°F) [RH = 85%]
Pressure (altimeter): 29.91 inches Hg (1013.0 mb)
Winds: from the NNE (20 degrees) at 3 MPH (3 knots; 1.5 m/s)
Visibility: 0.16 miles (0.26 km)
Ceiling: at least 12,000 feet AGL
Clouds: sky clear below 12,000 feet AGL
Weather: no significant weather observed at this time

METAR text: ESOW 232120Z AUTO 02002KT 0150 R01/0650N R19/1800N FZFG FEW035/// M12/M14 Q1012
Conditions at: ESOW (VASTERAS/HASSLO , SE) observed 2120 UTC 23 January 2019
Temperature: -12.0°C (10°F)
Dewpoint: -14.0°C ( 7°F) [RH = 85%]
Pressure (altimeter): 29.88 inches Hg (1012.0 mb)
Winds: from the NNE (20 degrees) at 2 MPH (2 knots; 1.0 m/s)
Visibility: 0.09 miles (0.14 km)
Ceiling: at least 12,000 feet AGL
Clouds: few clouds at 3500 feet AGL
Weather: FZFG  (freezing fog)

METAR text: ESOW 232050Z AUTO 03003KT 0200 R01/0650N R19/P2000N BCFG BKN035/// M11/M13 Q1012
Conditions at: ESOW (VASTERAS/HASSLO , SE) observed 2050 UTC 23 January 2019
Temperature: -11.0°C (12°F)
Dewpoint: -13.0°C ( 9°F) [RH = 85%]
Pressure (altimeter): 29.88 inches Hg (1012.0 mb)
Winds: from the NNE (30 degrees) at 3 MPH (3 knots; 1.5 m/s)
Visibility: 0.12 miles (0.19 km)
Ceiling: 3500 feet AGL
Clouds: broken clouds at 3500 feet AGL
Weather: BCFG  (patches of fog)

METAR text: ESOW 232020Z AUTO 02002KT 0300 R01/1400N R19/1600D FZFG OVC035/// M10/M11 Q1012
Conditions at: ESOW (VASTERAS/HASSLO , SE) observed 2020 UTC 23 January 2019
Temperature: -10.0°C (14°F)
Dewpoint: -11.0°C (12°F) [RH = 92%]
Pressure (altimeter): 29.88 inches Hg (1012.0 mb)
Winds: from the NNE (20 degrees) at 2 MPH (2 knots; 1.0 m/s)
Visibility: 0.19 miles (0.31 km)
Ceiling: 3500 feet AGL
Clouds: overcast cloud deck at 3500 feet AGL
Weather: FZFG  (freezing fog)

METAR text: ESOW 231950Z AUTO 02002KT 0150 R01/0750N R19/1000N FZFG SCT001/// OVC036/// M09/M11 Q1012
Conditions at: ESOW (VASTERAS/HASSLO , SE) observed 1950 UTC 23 January 2019
Temperature: -9.0°C (16°F)
Dewpoint: -11.0°C (12°F) [RH = 85%]
Pressure (altimeter): 29.88 inches Hg (1012.0 mb)
Winds: from the NNE (20 degrees) at 2 MPH (2 knots; 1.0 m/s)
Visibility: 0.09 miles (0.14 km)
Ceiling: 3600 feet AGL
Clouds: scattered clouds at 100 feet AGL
overcast cloud deck at 3600 feet AGL
Weather: FZFG  (freezing fog)

METAR text: ESOW 231920Z AUTO 02002KT 0100 R01/0400N R19/0350N FZFG VV001 M09/M11 Q1011
Conditions at: ESOW (VASTERAS/HASSLO , SE) observed 1920 UTC 23 January 2019
Temperature: -9.0°C (16°F)
Dewpoint: -11.0°C (12°F) [RH = 85%]
Pressure (altimeter): 29.85 inches Hg (1011.0 mb)
Winds: from the NNE (20 degrees) at 2 MPH (2 knots; 1.0 m/s)
Visibility: 0.06 miles (0.10 km)
Ceiling: indefinite ceiling with vertical visibility of 100 feet AGL
Clouds: obscured sky
Weather: FZFG  (freezing fog)

METAR text: ESOW 231850Z AUTO 00000KT 0100 R01/0325N R19/0350N FZFG VV001 M09/M11 Q1011
Conditions at: ESOW (VASTERAS/HASSLO , SE) observed 1850 UTC 23 January 2019
Temperature: -9.0°C (16°F)
Dewpoint: -11.0°C (12°F) [RH = 85%]
Pressure (altimeter): 29.85 inches Hg (1011.0 mb)
Winds: calm
Visibility: 0.06 miles (0.10 km)
Ceiling: indefinite ceiling with vertical visibility of 100 feet AGL
Clouds: obscured sky
Weather: FZFG  (freezing fog)

METAR text: ESOW 231820Z AUTO 03001KT 0200 R01/0650D R19/0650N FZFG VV001 M10/M11 Q1011
Conditions at: ESOW (VASTERAS/HASSLO , SE) observed 1820 UTC 23 January 2019
Temperature: -10.0°C (14°F)
Dewpoint: -11.0°C (12°F) [RH = 92%]
Pressure (altimeter): 29.85 inches Hg (1011.0 mb)
Winds: from the NNE (30 degrees) at 1 MPH (1 knots; 0.5 m/s)
Visibility: 0.12 miles (0.19 km)
Ceiling: indefinite ceiling with vertical visibility of 100 feet AGL
Clouds: obscured sky
Weather: FZFG  (freezing fog)

METAR text: ESOW 231750Z AUTO VRB01KT 0100 R01/0450N R19/0600D FZFG VV001 M09/M11 Q1011
Conditions at: ESOW (VASTERAS/HASSLO , SE) observed 1750 UTC 23 January 2019
Temperature: -9.0°C (16°F)
Dewpoint: -11.0°C (12°F) [RH = 85%]
Pressure (altimeter): 29.85 inches Hg (1011.0 mb)
Winds: variable direction winds at 1 MPH (1 knots; 0.5 m/s)
Visibility: 0.06 miles (0.10 km)
Ceiling: indefinite ceiling with vertical visibility of 100 feet AGL
Clouds: obscured sky
Weather: FZFG  (freezing fog)

METAR text: ESOW 231720Z AUTO 35002KT 0100 R01/0600N R19/0400N FZFG VV001 M09/M11 Q1011
Conditions at: ESOW (VASTERAS/HASSLO , SE) observed 1720 UTC 23 January 2019
Temperature: -9.0°C (16°F)
Dewpoint: -11.0°C (12°F) [RH = 85%]
Pressure (altimeter): 29.85 inches Hg (1011.0 mb)
Winds: from the N (350 degrees) at 2 MPH (2 knots; 1.0 m/s)
Visibility: 0.06 miles (0.10 km)
Ceiling: indefinite ceiling with vertical visibility of 100 feet AGL
Clouds: obscured sky
Weather: FZFG  (freezing fog)

METAR text: ESOW 231650Z AUTO 00000KT 0050 R01/0400N R19/0400N FZFG VV001 M09/M11 Q1011
Conditions at: ESOW (VASTERAS/HASSLO , SE) observed 1650 UTC 23 January 2019
Temperature: -9.0°C (16°F)
Dewpoint: -11.0°C (12°F) [RH = 85%]
Pressure (altimeter): 29.85 inches Hg (1011.0 mb)
Winds: calm
Visibility: 0.03 miles (0.05 km)
Ceiling: indefinite ceiling with vertical visibility of 100 feet AGL
Clouds: obscured sky
Weather: FZFG  (freezing fog)

METAR text: ESOW 231620Z 00000KT 0100 R01/0800N R19/0450N FZFG VV001 M09/M10 Q1011
Conditions at: ESOW (VASTERAS/HASSLO , SE) observed 1620 UTC 23 January 2019
Temperature: -9.0°C (16°F)
Dewpoint: -10.0°C (14°F) [RH = 92%]
Pressure (altimeter): 29.85 inches Hg (1011.0 mb)
Winds: calm
Visibility: 0.06 miles (0.10 km)
Ceiling: indefinite ceiling with vertical visibility of 100 feet AGL
Clouds: obscured sky
Weather: FZFG  (freezing fog)

METAR text: ESOW 231550Z 15002KT 0150 R01/0900U R19/0600N FZFG FEW048 M08/M10 Q1010 R19/310168
Conditions at: ESOW (VASTERAS/HASSLO , SE) observed 1550 UTC 23 January 2019
Temperature: -8.0°C (18°F)
Dewpoint: -10.0°C (14°F) [RH = 85%]
Pressure (altimeter): 29.82 inches Hg (1010.0 mb)
Winds: from the SSE (150 degrees) at 2 MPH (2 knots; 1.0 m/s)
Visibility: 0.09 miles (0.14 km)
Ceiling: at least 12,000 feet AGL
Clouds: few clouds at 4800 feet AGL
Weather: FZFG  (freezing fog)

METAR text: ESOW 231520Z 16001KT 0100 R01/0500N R19/0400N FZFG FEW048 M07/M09 Q1010 R19/310168
Conditions at: ESOW (VASTERAS/HASSLO , SE) observed 1520 UTC 23 January 2019
Temperature: -7.0°C (19°F)
Dewpoint: -9.0°C (16°F) [RH = 86%]
Pressure (altimeter): 29.82 inches Hg (1010.0 mb)
Winds: from the SSE (160 degrees) at 1 MPH (1 knots; 0.5 m/s)
Visibility: 0.06 miles (0.10 km)
Ceiling: at least 12,000 feet AGL
Clouds: few clouds at 4800 feet AGL
Weather: FZFG  (freezing fog)

METAR text: ESOW 231450Z 00000KT 0200 R01/0500N R19/0325N FZFG SCT047 M05/M06 Q1010 R19/310168
Conditions at: ESOW (VASTERAS/HASSLO , SE) observed 1450 UTC 23 January 2019
Temperature: -5.0°C (23°F)
Dewpoint: -6.0°C (21°F) [RH = 93%]
Pressure (altimeter): 29.82 inches Hg (1010.0 mb)
Winds: calm
Visibility: 0.12 miles (0.19 km)
Ceiling: at least 12,000 feet AGL
Clouds: scattered clouds at 4700 feet AGL
Weather: FZFG  (freezing fog)

METAR text: ESOW 231420Z 17003KT 0400 R01/1400D R19/0400N FZFG PRFG BKN048 M03/M05 Q1010 R19/19//95
Conditions at: ESOW (VASTERAS/HASSLO , SE) observed 1420 UTC 23 January 2019
Temperature: -3.0°C (27°F)
Dewpoint: -5.0°C (23°F) [RH = 86%]
Pressure (altimeter): 29.82 inches Hg (1010.0 mb)
Winds: from the S (170 degrees) at 3 MPH (3 knots; 1.5 m/s)
Visibility: 0.25 miles (0.40 km)
Ceiling: 4800 feet AGL
Clouds: broken clouds at 4800 feet AGL
Weather: PRFG FZFG  (partial fog, freezing fog)

METAR text: ESOW 231350Z 21002KT 3500 BR FEW005 BKN048 M03/M04 Q1010 R19/19//95
Conditions at: ESOW (VASTERAS/HASSLO , SE) observed 1350 UTC 23 January 2019
Temperature: -3.0°C (27°F)
Dewpoint: -4.0°C (25°F) [RH = 93%]
Pressure (altimeter): 29.82 inches Hg (1010.0 mb)
Winds: from the SSW (210 degrees) at 2 MPH (2 knots; 1.0 m/s)
Visibility: 2.17 miles (3.49 km)
Ceiling: 4800 feet AGL
Clouds: few clouds at 500 feet AGL
broken clouds at 4800 feet AGL
Weather: BR  (mist)

METAR text: ESOW 231320Z 21002KT 5000 BR BKN005 OVC048 M02/M03 Q1009 R19/19//95
Conditions at: ESOW (VASTERAS/HASSLO , SE) observed 1320 UTC 23 January 2019
Temperature: -2.0°C (28°F)
Dewpoint: -3.0°C (27°F) [RH = 93%]
Pressure (altimeter): 29.79 inches Hg (1009.0 mb)
Winds: from the SSW (210 degrees) at 2 MPH (2 knots; 1.0 m/s)
Visibility: 3 miles ( 5 km)
Ceiling: 500 feet AGL
Clouds: broken clouds at 500 feet AGL
overcast cloud deck at 4800 feet AGL
Weather: BR  (mist)

METAR text: ESOW 231250Z 21003KT 4000 BR SCT005 BKN049 M02/M03 Q1009 R19/19//95
Conditions at: ESOW (VASTERAS/HASSLO , SE) observed 1250 UTC 23 January 2019
Temperature: -2.0°C (28°F)
Dewpoint: -3.0°C (27°F) [RH = 93%]
Pressure (altimeter): 29.79 inches Hg (1009.0 mb)
Winds: from the SSW (210 degrees) at 3 MPH (3 knots; 1.5 m/s)
Visibility: 2.49 miles (4.01 km)
Ceiling: 4900 feet AGL
Clouds: scattered clouds at 500 feet AGL
broken clouds at 4900 feet AGL
Weather: BR  (mist)

METAR text: ESOW 231220Z 22004KT 4000 BR BKN004 M02/M03 Q1009 R19/19//95
Conditions at: ESOW (VASTERAS/HASSLO , SE) observed 1220 UTC 23 January 2019
Temperature: -2.0°C (28°F)
Dewpoint: -3.0°C (27°F) [RH = 93%]
Pressure (altimeter): 29.79 inches Hg (1009.0 mb)
Winds: from the SW (220 degrees) at 5 MPH (4 knots; 2.1 m/s)
Visibility: 2.49 miles (4.01 km)
Ceiling: 400 feet AGL
Clouds: broken clouds at 400 feet AGL
Weather: BR  (mist)

METAR text: ESOW 231150Z 21003KT 3700 BR OVC003 M02/M03 Q1009 R19/510169
Conditions at: ESOW (VASTERAS/HASSLO , SE) observed 1150 UTC 23 January 2019
Temperature: -2.0°C (28°F)
Dewpoint: -3.0°C (27°F) [RH = 93%]
Pressure (altimeter): 29.79 inches Hg (1009.0 mb)
Winds: from the SSW (210 degrees) at 3 MPH (3 knots; 1.5 m/s)
Visibility: 2.30 miles (3.70 km)
Ceiling: 300 feet AGL
Clouds: overcast cloud deck at 300 feet AGL
Weather: BR  (mist)

METAR text: ESOW 231120Z 23003KT 180V270 3600 BR OVC003 M03/M04 Q1009 R19/510169
Conditions at: ESOW (VASTERAS/HASSLO , SE) observed 1120 UTC 23 January 2019
Temperature: -3.0°C (27°F)
Dewpoint: -4.0°C (25°F) [RH = 93%]
Pressure (altimeter): 29.79 inches Hg (1009.0 mb)
Winds: from the SW (230 degrees) at 3 MPH (3 knots; 1.5 m/s)
Visibility: 2.24 miles (3.60 km)
Ceiling: 300 feet AGL
Clouds: overcast cloud deck at 300 feet AGL
Weather: BR  (mist)

METAR text: ESOW 231050Z 22004KT 3800 BR VV003 M03/M04 Q1009 R19/510169
Conditions at: ESOW (VASTERAS/HASSLO , SE) observed 1050 UTC 23 January 2019
Temperature: -3.0°C (27°F)
Dewpoint: -4.0°C (25°F) [RH = 93%]
Pressure (altimeter): 29.79 inches Hg (1009.0 mb)
Winds: from the SW (220 degrees) at 5 MPH (4 knots; 2.1 m/s)
Visibility: 2.36 miles (3.80 km)
Ceiling: indefinite ceiling with vertical visibility of 300 feet AGL
Clouds: obscured sky
Weather: BR  (mist)

METAR text: ESOW 231020Z 18003KT 3000 BR BKN004 M03/M04 Q1009 R19/510169
Conditions at: ESOW (VASTERAS/HASSLO , SE) observed 1020 UTC 23 January 2019
Temperature: -3.0°C (27°F)
Dewpoint: -4.0°C (25°F) [RH = 93%]
Pressure (altimeter): 29.79 inches Hg (1009.0 mb)
Winds: from the S (180 degrees) at 3 MPH (3 knots; 1.5 m/s)
Visibility: 1.86 miles (2.99 km)
Ceiling: 400 feet AGL
Clouds: broken clouds at 400 feet AGL
Weather: BR  (mist)

METAR text: ESOW 230950Z 18006KT 4100 BR SCT003 BKN046 M04/M05 Q1009 R19/510169
Conditions at: ESOW (VASTERAS/HASSLO , SE) observed 0950 UTC 23 January 2019
Temperature: -4.0°C (25°F)
Dewpoint: -5.0°C (23°F) [RH = 93%]
Pressure (altimeter): 29.79 inches Hg (1009.0 mb)
Winds: from the S (180 degrees) at 7 MPH (6 knots; 3.1 m/s)
Visibility: 2.55 miles (4.10 km)
Ceiling: 4600 feet AGL
Clouds: scattered clouds at 300 feet AGL
broken clouds at 4600 feet AGL
Weather: BR  (mist)

METAR text: ESOW 230920Z 16002KT 5000 BR VV005 M05/M06 Q1009 R19/510169
Conditions at: ESOW (VASTERAS/HASSLO , SE) observed 0920 UTC 23 January 2019
Temperature: -5.0°C (23°F)
Dewpoint: -6.0°C (21°F) [RH = 93%]
Pressure (altimeter): 29.79 inches Hg (1009.0 mb)
Winds: from the SSE (160 degrees) at 2 MPH (2 knots; 1.0 m/s)
Visibility: 3 miles ( 5 km)
Ceiling: indefinite ceiling with vertical visibility of 500 feet AGL
Clouds: obscured sky
Weather: BR  (mist)

METAR text: ESOW 230850Z 15003KT 4800 BR BKN004 OVC040 M05/M06 Q1009 R19/510169
Conditions at: ESOW (VASTERAS/HASSLO , SE) observed 0850 UTC 23 January 2019
Temperature: -5.0°C (23°F)
Dewpoint: -6.0°C (21°F) [RH = 93%]
Pressure (altimeter): 29.79 inches Hg (1009.0 mb)
Winds: from the SSE (150 degrees) at 3 MPH (3 knots; 1.5 m/s)
Visibility: 2.98 miles (4.80 km)
Ceiling: 400 feet AGL
Clouds: broken clouds at 400 feet AGL
overcast cloud deck at 4000 feet AGL
Weather: BR  (mist)

METAR text: ESOW 230820Z VRB01KT 6000 OVC004 M05/M07 Q1009 R19/550144
Conditions at: ESOW (VASTERAS/HASSLO , SE) observed 0820 UTC 23 January 2019
Temperature: -5.0°C (23°F)
Dewpoint: -7.0°C (19°F) [RH = 86%]
Pressure (altimeter): 29.79 inches Hg (1009.0 mb)
Winds: variable direction winds at 1 MPH (1 knots; 0.5 m/s)
Visibility: 4 miles ( 6 km)
Ceiling: 400 feet AGL
Clouds: overcast cloud deck at 400 feet AGL
Weather: no significant weather observed at this time

METAR text: ESOW 230750Z 00000KT 6000 BKN005 BKN047 M06/M07 Q1009 R19/550144
Conditions at: ESOW (VASTERAS/HASSLO , SE) observed 0750 UTC 23 January 2019
Temperature: -6.0°C (21°F)
Dewpoint: -7.0°C (19°F) [RH = 93%]
Pressure (altimeter): 29.79 inches Hg (1009.0 mb)
Winds: calm
Visibility: 4 miles ( 6 km)
Ceiling: 500 feet AGL
Clouds: broken clouds at 500 feet AGL
broken clouds at 4700 feet AGL
Weather: no significant weather observed at this time

METAR text: ESOW 230720Z 00000KT 5000 BKN006 M06/M07 Q1008 R19/550144
Conditions at: ESOW (VASTERAS/HASSLO , SE) observed 0720 UTC 23 January 2019
Temperature: -6.0°C (21°F)
Dewpoint: -7.0°C (19°F) [RH = 93%]
Pressure (altimeter): 29.76 inches Hg (1008.0 mb)
Winds: calm
Visibility: 3 miles ( 5 km)
Ceiling: 600 feet AGL
Clouds: broken clouds at 600 feet AGL
Weather: no significant weather observed at this time

METAR text: ESOW 230650Z 02003KT 4500 BR FEW009 BKN053 M07/M08 Q1008
Conditions at: ESOW (VASTERAS/HASSLO , SE) observed 0650 UTC 23 January 2019
Temperature: -7.0°C (19°F)
Dewpoint: -8.0°C (18°F) [RH = 93%]
Pressure (altimeter): 29.76 inches Hg (1008.0 mb)
Winds: from the NNE (20 degrees) at 3 MPH (3 knots; 1.5 m/s)
Visibility: 2.80 miles (4.51 km)
Ceiling: 5300 feet AGL
Clouds: few clouds at 900 feet AGL
broken clouds at 5300 feet AGL
Weather: BR  (mist)

METAR text: ESOW 230620Z AUTO VRB02KT 4200 BR BKN010/// OVC055/// M05/M07 Q1008
Conditions at: ESOW (VASTERAS/HASSLO , SE) observed 0620 UTC 23 January 2019
Temperature: -5.0°C (23°F)
Dewpoint: -7.0°C (19°F) [RH = 86%]
Pressure (altimeter): 29.76 inches Hg (1008.0 mb)
Winds: variable direction winds at 2 MPH (2 knots; 1.0 m/s)
Visibility: 2.61 miles (4.20 km)
Ceiling: 1000 feet AGL
Clouds: broken clouds at 1000 feet AGL
overcast cloud deck at 5500 feet AGL
Weather: BR  (mist)

METAR text: ESOW 230550Z AUTO 01002KT 2300 BR FEW006/// OVC055/// M06/M08 Q1008
Conditions at: ESOW (VASTERAS/HASSLO , SE) observed 0550 UTC 23 January 2019
Temperature: -6.0°C (21°F)
Dewpoint: -8.0°C (18°F) [RH = 86%]
Pressure (altimeter): 29.76 inches Hg (1008.0 mb)
Winds: from the N (10 degrees) at 2 MPH (2 knots; 1.0 m/s)
Visibility: 1.43 miles (2.30 km)
Ceiling: 5500 feet AGL
Clouds: few clouds at 600 feet AGL
overcast cloud deck at 5500 feet AGL
Weather: BR  (mist)

METAR text: ESOW 230520Z AUTO 00000KT 2700 BR FEW017/// OVC055/// M05/M07 Q1008
Conditions at: ESOW (VASTERAS/HASSLO , SE) observed 0520 UTC 23 January 2019
Temperature: -5.0°C (23°F)
Dewpoint: -7.0°C (19°F) [RH = 86%]
Pressure (altimeter): 29.76 inches Hg (1008.0 mb)
Winds: calm
Visibility: 1.68 miles (2.70 km)
Ceiling: 5500 feet AGL
Clouds: few clouds at 1700 feet AGL
overcast cloud deck at 5500 feet AGL
Weather: BR  (mist)

METAR text: ESOW 230450Z AUTO VRB03KT 3900 BR FEW005/// SCT016/// OVC055/// M05/M06 Q1008
Conditions at: ESOW (VASTERAS/HASSLO , SE) observed 0450 UTC 23 January 2019
Temperature: -5.0°C (23°F)
Dewpoint: -6.0°C (21°F) [RH = 93%]
Pressure (altimeter): 29.76 inches Hg (1008.0 mb)
Winds: variable direction winds at 3 MPH (3 knots; 1.5 m/s)
Visibility: 2.42 miles (3.89 km)
Ceiling: 5500 feet AGL
Clouds: few clouds at 500 feet AGL
scattered clouds at 1600 feet AGL
overcast cloud deck at 5500 feet AGL
Weather: BR  (mist)

METAR text: ESOW 230420Z AUTO 01003KT 2800 BR OVC055/// M05/M06 Q1008
Conditions at: ESOW (VASTERAS/HASSLO , SE) observed 0420 UTC 23 January 2019
Temperature: -5.0°C (23°F)
Dewpoint: -6.0°C (21°F) [RH = 93%]
Pressure (altimeter): 29.76 inches Hg (1008.0 mb)
Winds: from the N (10 degrees) at 3 MPH (3 knots; 1.5 m/s)
Visibility: 1.74 miles (2.80 km)
Ceiling: 5500 feet AGL
Clouds: overcast cloud deck at 5500 feet AGL
Weather: BR  (mist)

METAR text: ESOW 230350Z AUTO 36002KT 3100 BR FEW005/// SCT016/// OVC057/// M05/M06 Q1008
Conditions at: ESOW (VASTERAS/HASSLO , SE) observed 0350 UTC 23 January 2019
Temperature: -5.0°C (23°F)
Dewpoint: -6.0°C (21°F) [RH = 93%]
Pressure (altimeter): 29.76 inches Hg (1008.0 mb)
Winds: from the N (360 degrees) at 2 MPH (2 knots; 1.0 m/s)
Visibility: 1.93 miles (3.11 km)
Ceiling: 5700 feet AGL
Clouds: few clouds at 500 feet AGL
scattered clouds at 1600 feet AGL
overcast cloud deck at 5700 feet AGL
Weather: BR  (mist)

METAR text: ESOW 230320Z AUTO 01003KT 2500 BR FEW006/// SCT016/// OVC057/// M04/M06 Q1008 REUP RESHUP
Conditions at: ESOW (VASTERAS/HASSLO , SE) observed 0320 UTC 23 January 2019
Temperature: -4.0°C (25°F)
Dewpoint: -6.0°C (21°F) [RH = 86%]
Pressure (altimeter): 29.76 inches Hg (1008.0 mb)
Winds: from the N (10 degrees) at 3 MPH (3 knots; 1.5 m/s)
Visibility: 1.55 miles (2.49 km)
Ceiling: 5700 feet AGL
Clouds: few clouds at 600 feet AGL
scattered clouds at 1600 feet AGL
overcast cloud deck at 5700 feet AGL
Weather: BR SH UP  (mist, showers, unknown precipitation)

METAR text: ESOW 230250Z AUTO 00000KT 2500 BR FEW011/// OVC057/// M04/M05 Q1008 REDZ
Conditions at: ESOW (VASTERAS/HASSLO , SE) observed 0250 UTC 23 January 2019
Temperature: -4.0°C (25°F)
Dewpoint: -5.0°C (23°F) [RH = 93%]
Pressure (altimeter): 29.76 inches Hg (1008.0 mb)
Winds: calm
Visibility: 1.55 miles (2.49 km)
Ceiling: 5700 feet AGL
Clouds: few clouds at 1100 feet AGL
overcast cloud deck at 5700 feet AGL
Weather: BR  (mist)

METAR text: ESOW 230220Z AUTO VRB01KT 3500 BR FEW010/// OVC057/// M04/M05 Q1007 RESN
Conditions at: ESOW (VASTERAS/HASSLO , SE) observed 0220 UTC 23 January 2019
Temperature: -4.0°C (25°F)
Dewpoint: -5.0°C (23°F) [RH = 93%]
Pressure (altimeter): 29.73 inches Hg (1007.0 mb)
Winds: variable direction winds at 1 MPH (1 knots; 0.5 m/s)
Visibility: 2.17 miles (3.49 km)
Ceiling: 5700 feet AGL
Clouds: few clouds at 1000 feet AGL
overcast cloud deck at 5700 feet AGL
Weather: BR  (mist)

METAR text: ESOW 230150Z AUTO 00000KT 3700 BR OVC057/// M03/M04 Q1008
Conditions at: ESOW (VASTERAS/HASSLO , SE) observed 0150 UTC 23 January 2019
Temperature: -3.0°C (27°F)
Dewpoint: -4.0°C (25°F) [RH = 93%]
Pressure (altimeter): 29.76 inches Hg (1008.0 mb)
Winds: calm
Visibility: 2.30 miles (3.70 km)
Ceiling: 5700 feet AGL
Clouds: overcast cloud deck at 5700 feet AGL
Weather: BR  (mist)

METAR text: ESOW 230120Z AUTO 31002KT 4900 BR OVC057/// M03/M04 Q1007
Conditions at: ESOW (VASTERAS/HASSLO , SE) observed 0120 UTC 23 January 2019
Temperature: -3.0°C (27°F)
Dewpoint: -4.0°C (25°F) [RH = 93%]
Pressure (altimeter): 29.73 inches Hg (1007.0 mb)
Winds: from the NW (310 degrees) at 2 MPH (2 knots; 1.0 m/s)
Visibility: 3 miles ( 5 km)
Ceiling: 5700 feet AGL
Clouds: overcast cloud deck at 5700 feet AGL
Weather: BR  (mist)

METAR text: ESOW 230050Z AUTO 32001KT 4000 -SN BKN006/// OVC057/// M03/M04 Q1007
Conditions at: ESOW (VASTERAS/HASSLO , SE) observed 0050 UTC 23 January 2019
Temperature: -3.0°C (27°F)
Dewpoint: -4.0°C (25°F) [RH = 93%]
Pressure (altimeter): 29.73 inches Hg (1007.0 mb)
Winds: from the NW (320 degrees) at 1 MPH (1 knots; 0.5 m/s)
Visibility: 2.49 miles (4.01 km)
Ceiling: 600 feet AGL
Clouds: broken clouds at 600 feet AGL
overcast cloud deck at 5700 feet AGL
Weather: -SN  (light snow)

METAR text: ESOW 230020Z AUTO 03003KT 4000 BR OVC006/// M03/M04 Q1008 RESN
Conditions at: ESOW (VASTERAS/HASSLO , SE) observed 0020 UTC 23 January 2019
Temperature: -3.0°C (27°F)
Dewpoint: -4.0°C (25°F) [RH = 93%]
Pressure (altimeter): 29.76 inches Hg (1008.0 mb)
Winds: from the NNE (30 degrees) at 3 MPH (3 knots; 1.5 m/s)
Visibility: 2.49 miles (4.01 km)
Ceiling: 600 feet AGL
Clouds: overcast cloud deck at 600 feet AGL
Weather: BR  (mist)

METAR text: ESOW 222350Z AUTO 36006KT 4000 BR OVC005/// M03/M04 Q1008
Conditions at: ESOW (VASTERAS/HASSLO , SE) observed 2350 UTC 22 January 2019
Temperature: -3.0°C (27°F)
Dewpoint: -4.0°C (25°F) [RH = 93%]
Pressure (altimeter): 29.76 inches Hg (1008.0 mb)
Winds: from the N (360 degrees) at 7 MPH (6 knots; 3.1 m/s)
Visibility: 2.49 miles (4.01 km)
Ceiling: 500 feet AGL
Clouds: overcast cloud deck at 500 feet AGL
Weather: BR  (mist)

METAR text: ESOW 222320Z AUTO VRB02KT 2800 SG SCT005/// BKN015/// OVC055/// M02/M04 Q1008 RESHUP
Conditions at: ESOW (VASTERAS/HASSLO , SE) observed 2320 UTC 22 January 2019
Temperature: -2.0°C (28°F)
Dewpoint: -4.0°C (25°F) [RH = 86%]
Pressure (altimeter): 29.76 inches Hg (1008.0 mb)
Winds: variable direction winds at 2 MPH (2 knots; 1.0 m/s)
Visibility: 1.74 miles (2.80 km)
Ceiling: 1500 feet AGL
Clouds: scattered clouds at 500 feet AGL
broken clouds at 1500 feet AGL
overcast cloud deck at 5500 feet AGL
Weather: SG  (moderate snow grains)

METAR text: ESOW 222250Z AUTO 36003KT 3300 FZUP SCT005/// BKN006/// OVC057/// M03/M04 Q1008
Conditions at: ESOW (VASTERAS/HASSLO , SE) observed 2250 UTC 22 January 2019
Temperature: -3.0°C (27°F)
Dewpoint: -4.0°C (25°F) [RH = 93%]
Pressure (altimeter): 29.76 inches Hg (1008.0 mb)
Winds: from the N (360 degrees) at 3 MPH (3 knots; 1.5 m/s)
Visibility: 2.05 miles (3.30 km)
Ceiling: 600 feet AGL
Clouds: scattered clouds at 500 feet AGL
broken clouds at 600 feet AGL
overcast cloud deck at 5700 feet AGL
Weather: UP  (unknown precipitation)

METAR text: ESOW 222220Z AUTO VRB02KT 2600 -SN BKN005/// OVC008/// M02/M03 Q1008
Conditions at: ESOW (VASTERAS/HASSLO , SE) observed 2220 UTC 22 January 2019
Temperature: -2.0°C (28°F)
Dewpoint: -3.0°C (27°F) [RH = 93%]
Pressure (altimeter): 29.76 inches Hg (1008.0 mb)
Winds: variable direction winds at 2 MPH (2 knots; 1.0 m/s)
Visibility: 1.62 miles (2.61 km)
Ceiling: 500 feet AGL
Clouds: broken clouds at 500 feet AGL
overcast cloud deck at 800 feet AGL
Weather: -SN  (light snow)

METAR text: ESOW 222150Z AUTO VRB01KT 2700 -SN BKN005/// OVC007/// M03/M04 Q1008
Conditions at: ESOW (VASTERAS/HASSLO , SE) observed 2150 UTC 22 January 2019
Temperature: -3.0°C (27°F)
Dewpoint: -4.0°C (25°F) [RH = 93%]
Pressure (altimeter): 29.76 inches Hg (1008.0 mb)
Winds: variable direction winds at 1 MPH (1 knots; 0.5 m/s)
Visibility: 1.68 miles (2.70 km)
Ceiling: 500 feet AGL
Clouds: broken clouds at 500 feet AGL
overcast cloud deck at 700 feet AGL
Weather: -SN  (light snow)

METAR text: ESOW 222120Z AUTO 00000KT 2300 -SN FEW005/// OVC025/// M03/M04 Q1008
Conditions at: ESOW (VASTERAS/HASSLO , SE) observed 2120 UTC 22 January 2019
Temperature: -3.0°C (27°F)
Dewpoint: -4.0°C (25°F) [RH = 93%]
Pressure (altimeter): 29.76 inches Hg (1008.0 mb)
Winds: calm
Visibility: 1.43 miles (2.30 km)
Ceiling: 2500 feet AGL
Clouds: few clouds at 500 feet AGL
overcast cloud deck at 2500 feet AGL
Weather: -SN  (light snow)

METAR text: ESOW 222050Z AUTO VRB02KT 1300 R01/P2000N R19/P2000N SG FEW005/// SCT009/// BKN026/// M03/M04 Q1008
Conditions at: ESOW (VASTERAS/HASSLO , SE) observed 2050 UTC 22 January 2019
Temperature: -3.0°C (27°F)
Dewpoint: -4.0°C (25°F) [RH = 93%]
Pressure (altimeter): 29.76 inches Hg (1008.0 mb)
Winds: variable direction winds at 2 MPH (2 knots; 1.0 m/s)
Visibility: 0.81 miles (1.30 km)
Ceiling: 2600 feet AGL
Clouds: few clouds at 500 feet AGL
scattered clouds at 900 feet AGL
broken clouds at 2600 feet AGL
Weather: SG  (moderate snow grains)

METAR text: ESOW 222020Z AUTO 00000KT 0500 R01/P2000N R19/P2000N -SN OVC005/// M03/M04 Q1008
Conditions at: ESOW (VASTERAS/HASSLO , SE) observed 2020 UTC 22 January 2019
Temperature: -3.0°C (27°F)
Dewpoint: -4.0°C (25°F) [RH = 93%]
Pressure (altimeter): 29.76 inches Hg (1008.0 mb)
Winds: calm
Visibility: 0.31 miles (0.50 km)
Ceiling: 500 feet AGL
Clouds: overcast cloud deck at 500 feet AGL
Weather: -SN  (light snow)

METAR text: ESOW 221950Z AUTO VRB01KT 2400 -SN BKN005/// OVC032/// M03/M04 Q1008
Conditions at: ESOW (VASTERAS/HASSLO , SE) observed 1950 UTC 22 January 2019
Temperature: -3.0°C (27°F)
Dewpoint: -4.0°C (25°F) [RH = 93%]
Pressure (altimeter): 29.76 inches Hg (1008.0 mb)
Winds: variable direction winds at 1 MPH (1 knots; 0.5 m/s)
Visibility: 1.49 miles (2.40 km)
Ceiling: 500 feet AGL
Clouds: broken clouds at 500 feet AGL
overcast cloud deck at 3200 feet AGL
Weather: -SN  (light snow)

METAR text: ESOW 221920Z AUTO 00000KT 0650 R01/P2000N R19/P2000N -SN BKN004/// OVC051/// M02/M03 Q1008
Conditions at: ESOW (VASTERAS/HASSLO , SE) observed 1920 UTC 22 January 2019
Temperature: -2.0°C (28°F)
Dewpoint: -3.0°C (27°F) [RH = 93%]
Pressure (altimeter): 29.76 inches Hg (1008.0 mb)
Winds: calm
Visibility: 0.40 miles (0.64 km)
Ceiling: 400 feet AGL
Clouds: broken clouds at 400 feet AGL
overcast cloud deck at 5100 feet AGL
Weather: -SN  (light snow)

METAR text: ESOW 221850Z AUTO 00000KT 0450 R01/P2000N R19/P2000N -SN OVC005/// M03/M04 Q1008
Conditions at: ESOW (VASTERAS/HASSLO , SE) observed 1850 UTC 22 January 2019
Temperature: -3.0°C (27°F)
Dewpoint: -4.0°C (25°F) [RH = 93%]
Pressure (altimeter): 29.76 inches Hg (1008.0 mb)
Winds: calm
Visibility: 0.28 miles (0.45 km)
Ceiling: 500 feet AGL
Clouds: overcast cloud deck at 500 feet AGL
Weather: -SN  (light snow)

METAR text: ESOW 221820Z AUTO 14002KT 0400 R01/P2000N R19/P2000N -SN BKN005/// OVC047/// M03/M04 Q1008
Conditions at: ESOW (VASTERAS/HASSLO , SE) observed 1820 UTC 22 January 2019
Temperature: -3.0°C (27°F)
Dewpoint: -4.0°C (25°F) [RH = 93%]
Pressure (altimeter): 29.76 inches Hg (1008.0 mb)
Winds: from the SE (140 degrees) at 2 MPH (2 knots; 1.0 m/s)
Visibility: 0.25 miles (0.40 km)
Ceiling: 500 feet AGL
Clouds: broken clouds at 500 feet AGL
overcast cloud deck at 4700 feet AGL
Weather: -SN  (light snow)

METAR text: ESOW 221750Z AUTO 00000KT 2200 SG FEW005/// OVC045/// M03/M04 Q1008
Conditions at: ESOW (VASTERAS/HASSLO , SE) observed 1750 UTC 22 January 2019
Temperature: -3.0°C (27°F)
Dewpoint: -4.0°C (25°F) [RH = 93%]
Pressure (altimeter): 29.76 inches Hg (1008.0 mb)
Winds: calm
Visibility: 1.37 miles (2.20 km)
Ceiling: 4500 feet AGL
Clouds: few clouds at 500 feet AGL
overcast cloud deck at 4500 feet AGL
Weather: SG  (moderate snow grains)